Time;durP1;ratioP1;P1;durP2;ratioP2;P2;SDS_P1;SDS_P2;PMS_P1;PMS_P2;Temp;Humidity;BMP_temperature;BMP_pressure;BME280_temperature;BME280_humidity;BME280_pressure;Samples;Min_cycle;Max_cycle;Signal;HPM_P1;HPM_P2
2022/04/12 00:01:09;;;;;;;8.32;3.00;;;6.20;99.90;;;;;;4862261;29;20091;-91
2022/04/12 00:03:34;;;;;;;9.52;3.20;;;6.20;99.90;;;;;;4863883;29;20044;-92
2022/04/12 00:06:00;;;;;;;7.93;3.20;;;6.20;99.90;;;;;;4879865;29;20048;-91
2022/04/12 00:08:26;;;;;;;8.13;3.13;;;6.10;99.90;;;;;;4853272;29;20666;-91
2022/04/12 00:10:52;;;;;;;8.57;3.38;;;6.10;99.90;;;;;;4863409;29;20386;-91
2022/04/12 00:13:18;;;;;;;9.98;3.20;;;6.10;99.90;;;;;;4864143;29;20053;-91
2022/04/12 00:15:50;;;;;;;10.32;3.60;;;6.10;99.90;;;;;;4849572;29;20063;-91
2022/04/12 00:21:01;;;;;;;10.98;3.55;;;6.10;99.90;;;;;;4870359;29;20043;-91
2022/04/12 00:23:27;;;;;;;9.55;3.30;;;6.80;99.90;;;;;;4865029;29;20063;-91
2022/04/12 00:25:53;;;;;;;8.77;3.45;;;6.00;99.90;;;;;;4862635;29;20537;-91
2022/04/12 00:28:19;;;;;;;11.63;3.55;;;6.00;99.90;;;;;;4860555;29;20041;-91
2022/04/12 00:30:45;;;;;;;8.40;3.05;;;6.40;99.90;;;;;;4847257;29;20037;-91
2022/04/12 00:33:11;;;;;;;9.05;3.50;;;5.90;99.90;;;;;;4888402;29;20525;-91
2022/04/12 00:35:37;;;;;;;9.10;3.75;;;5.90;99.90;;;;;;4877326;29;20084;-91
2022/04/12 00:38:13;;;;;;;10.80;3.90;;;6.20;99.90;;;;;;4878127;29;20087;-91
2022/04/12 00:40:40;;;;;;;10.50;3.30;;;7.20;99.90;;;;;;4878552;29;20123;-91
2022/04/12 00:43:06;;;;;;;10.95;3.90;;;6.80;99.90;;;;;;4893633;29;20131;-90
2022/04/12 00:45:32;;;;;;;10.52;3.78;;;7.00;99.90;;;;;;4877030;29;20139;-90
2022/04/12 00:47:58;;;;;;;11.85;3.25;;;5.80;99.90;;;;;;4862872;29;20047;-90
2022/04/12 00:50:23;;;;;;;11.77;4.00;;;7.00;99.90;;;;;;4879039;29;20037;-90
2022/04/12 00:52:51;;;;;;;9.02;3.65;;;5.80;99.90;;;;;;4894666;29;20064;-90
2022/04/12 00:55:17;;;;;;;12.07;3.95;;;5.80;99.90;;;;;;4878499;29;20470;-90
2022/04/12 00:57:43;;;;;;;10.65;4.00;;;6.00;99.90;;;;;;4869409;29;20119;-90
2022/04/12 01:00:12;;;;;;;10.77;4.38;;;5.80;99.90;;;;;;4879597;29;20048;-91
2022/04/12 01:02:39;;;;;;;10.15;4.00;;;5.80;99.90;;;;;;4882801;29;20398;-91
2022/04/12 01:05:05;;;;;;;9.88;3.85;;;5.80;99.90;;;;;;4890832;29;20043;-89
2022/04/12 01:07:32;;;;;;;10.32;4.00;;;5.80;99.90;;;;;;4881815;29;20036;-91
2022/04/12 01:09:58;;;;;;;8.85;3.83;;;5.80;99.90;;;;;;4897209;29;20037;-88
2022/04/12 01:12:27;;;;;;;10.10;4.03;;;6.20;99.90;;;;;;4914006;29;20076;-91
2022/04/12 01:14:53;;;;;;;11.55;3.80;;;5.80;99.90;;;;;;4884033;29;20521;-90
2022/04/12 01:17:18;;;;;;;12.02;4.00;;;6.80;99.90;;;;;;4880240;29;20052;-90
2022/04/12 01:19:44;;;;;;;10.07;4.03;;;6.30;99.90;;;;;;4879356;29;20047;-89
2022/04/12 01:22:21;;;;;;;10.38;4.18;;;5.80;99.90;;;;;;4877337;29;20119;-90
2022/04/12 01:24:47;;;;;;;13.10;4.40;;;5.70;99.90;;;;;;4897778;29;20048;-90
2022/04/12 01:27:13;;;;;;;9.88;4.30;;;5.70;99.90;;;;;;4882795;29;20095;-90
2022/04/12 01:29:38;;;;;;;10.55;4.10;;;5.70;99.90;;;;;;4882596;29;20037;-90
2022/04/12 01:32:07;;;;;;;12.25;4.40;;;5.70;99.90;;;;;;4882292;29;20044;-90
2022/04/12 01:34:35;;;;;;;13.20;4.63;;;5.60;99.90;;;;;;4879538;29;20037;-91
2022/04/12 01:37:05;;;;;;;9.07;3.90;;;5.60;99.90;;;;;;4912400;29;20056;-90
2022/04/12 01:39:31;;;;;;;13.68;4.50;;;5.60;99.90;;;;;;4882701;29;20354;-90
2022/04/12 01:41:57;;;;;;;10.43;4.22;;;7.00;99.90;;;;;;4894577;29;21639;-91
2022/04/12 01:44:23;;;;;;;9.45;4.25;;;6.10;99.90;;;;;;4883919;29;20049;-90
2022/04/12 01:46:49;;;;;;;10.73;4.45;;;5.50;99.90;;;;;;4878512;29;20047;-90
2022/04/12 01:49:16;;;;;;;11.50;4.45;;;5.50;99.90;;;;;;4895531;29;20514;-91
2022/04/12 01:51:42;;;;;;;10.15;4.40;;;5.50;99.90;;;;;;4896538;29;20052;-89
2022/04/12 01:54:08;;;;;;;9.20;3.90;;;7.00;99.90;;;;;;4876070;29;20112;-91
2022/04/12 01:56:33;;;;;;;9.35;4.03;;;5.60;99.90;;;;;;4892625;29;20510;-90
2022/04/12 01:59:04;;;;;;;11.35;4.60;;;5.90;99.90;;;;;;4869568;29;20489;-90
2022/04/12 02:01:30;;;;;;;10.30;4.38;;;5.40;99.90;;;;;;4876544;29;20040;-90
2022/04/12 02:03:56;;;;;;;10.38;4.45;;;6.90;99.90;;;;;;4881419;29;20045;-90
2022/04/12 02:06:22;;;;;;;10.07;4.35;;;5.70;99.90;;;;;;4893630;29;20127;-90
2022/04/12 02:08:50;;;;;;;9.23;4.20;;;6.30;99.90;;;;;;4864722;29;20091;-90
2022/04/12 02:11:16;;;;;;;11.05;4.50;;;5.70;99.90;;;;;;4880744;29;20498;-90
2022/04/12 02:13:44;;;;;;;9.73;4.15;;;5.30;99.90;;;;;;4880936;29;20045;-89
2022/04/12 02:16:10;;;;;;;11.48;4.70;;;5.30;99.90;;;;;;4885587;29;20054;-90
2022/04/12 02:18:36;;;;;;;11.68;4.65;;;5.80;99.90;;;;;;4895696;29;20045;-90
2022/04/12 02:21:01;;;;;;;10.70;4.60;;;6.50;99.90;;;;;;4880329;29;20096;-90
2022/04/12 02:23:27;;;;;;;10.60;4.97;;;6.40;99.90;;;;;;4887557;29;20127;-91
2022/04/12 02:25:53;;;;;;;12.32;4.72;;;5.20;99.90;;;;;;4866099;29;20041;-88
2022/04/12 02:28:18;;;;;;;10.80;4.50;;;5.10;99.90;;;;;;4877137;29;20552;-90
2022/04/12 02:30:44;;;;;;;13.15;4.80;;;5.10;99.90;;;;;;4902551;29;20047;-90
2022/04/12 02:33:10;;;;;;;10.82;4.80;;;5.40;99.90;;;;;;4878906;29;20490;-90
2022/04/12 02:35:36;;;;;;;10.43;5.07;;;5.00;99.90;;;;;;4904732;29;20083;-89
2022/04/12 02:38:02;;;;;;;12.15;4.88;;;5.00;99.90;;;;;;4899241;29;20502;-90
2022/04/12 02:40:28;;;;;;;12.30;4.88;;;5.00;99.90;;;;;;4875899;29;20025;-90
2022/04/12 02:42:54;;;;;;;12.48;5.30;;;5.00;99.90;;;;;;4890692;29;20461;-90
2022/04/12 02:45:19;;;;;;;13.63;5.03;;;5.00;99.90;;;;;;4859539;29;20072;-90
2022/04/12 02:47:45;;;;;;;11.55;5.50;;;5.20;99.90;;;;;;4889979;29;20423;-89
2022/04/12 02:50:11;;;;;;;11.80;4.93;;;6.30;99.90;;;;;;4875696;29;20044;-89
2022/04/12 02:52:36;;;;;;;11.20;5.60;;;4.90;99.90;;;;;;4875218;29;20096;-90
2022/04/12 02:55:03;;;;;;;10.55;4.90;;;5.70;99.90;;;;;;4890337;29;20040;-89
2022/04/12 02:57:28;;;;;;;11.90;5.18;;;4.90;99.90;;;;;;4873946;29;20056;-90
2022/04/12 02:59:54;;;;;;;10.98;5.40;;;4.90;99.90;;;;;;4875092;29;20045;-91
2022/04/12 03:02:20;;;;;;;11.45;5.53;;;6.00;99.90;;;;;;4878566;29;20460;-91
2022/04/12 03:04:45;;;;;;;11.60;5.40;;;4.90;99.90;;;;;;4877749;29;20049;-90
2022/04/12 03:07:11;;;;;;;10.70;5.57;;;5.30;99.90;;;;;;4880789;29;20041;-90
2022/04/12 03:09:37;;;;;;;12.63;5.68;;;4.90;99.90;;;;;;4900792;29;20509;-90
2022/04/12 03:12:04;;;;;;;10.85;5.65;;;4.80;99.90;;;;;;4879288;29;20075;-90
2022/04/12 03:14:30;;;;;;;12.00;5.95;;;4.80;99.90;;;;;;4877953;29;20568;-90
2022/04/12 03:16:56;;;;;;;13.00;5.57;;;6.20;99.90;;;;;;4899680;29;20127;-90
2022/04/12 03:19:21;;;;;;;12.57;5.70;;;4.80;99.90;;;;;;4879193;29;21085;-90
2022/04/12 03:21:47;;;;;;;11.40;5.80;;;6.10;99.90;;;;;;4893503;29;20048;-90
2022/04/12 03:24:13;;;;;;;13.27;5.63;;;4.80;99.90;;;;;;4862964;29;20045;-90
2022/04/12 03:26:39;;;;;;;11.02;5.57;;;5.00;99.90;;;;;;4894079;29;20549;-90
2022/04/12 03:29:04;;;;;;;11.23;5.85;;;4.80;99.90;;;;;;4900059;29;20036;-91
2022/04/12 03:31:30;;;;;;;12.55;5.95;;;5.20;99.90;;;;;;4883248;29;20044;-90
2022/04/12 03:33:56;;;;;;;11.77;5.40;;;4.80;99.90;;;;;;4878675;29;20482;-90
2022/04/12 03:36:21;;;;;;;14.52;6.32;;;6.10;99.90;;;;;;4878804;29;20045;-90
2022/04/12 03:38:50;;;;;;;12.85;6.15;;;5.20;99.90;;;;;;4878952;29;20118;-90
2022/04/12 03:41:23;;;;;;;14.27;6.15;;;6.10;99.90;;;;;;4912411;29;20119;-89
2022/04/12 03:43:50;;;;;;;12.80;6.22;;;5.30;99.90;;;;;;4895916;29;20040;-89
2022/04/12 03:46:16;;;;;;;10.73;5.63;;;6.10;99.90;;;;;;4896173;29;20066;-90
2022/04/12 03:48:42;;;;;;;13.93;6.15;;;4.70;99.90;;;;;;4888399;29;20037;-90
2022/04/12 03:51:08;;;;;;;12.65;6.05;;;6.40;99.90;;;;;;4863365;29;20498;-89
2022/04/12 03:53:33;;;;;;;11.60;6.45;;;4.60;99.90;;;;;;4892130;29;20444;-90
2022/04/12 03:55:59;;;;;;;13.68;6.53;;;4.60;99.90;;;;;;4879301;29;20041;-90
2022/04/12 03:58:26;;;;;;;12.20;6.22;;;4.60;99.90;;;;;;4881675;29;20045;-91
2022/04/12 04:00:52;;;;;;;12.02;6.70;;;4.60;99.90;;;;;;4877695;29;20121;-91
2022/04/12 04:03:18;;;;;;;12.52;6.65;;;4.50;99.90;;;;;;4878731;29;20055;-91
2022/04/12 04:05:48;;;;;;;14.50;6.93;;;4.50;99.90;;;;;;4879099;29;20036;-90
2022/04/12 04:08:14;;;;;;;13.48;6.65;;;4.60;99.90;;;;;;4878246;29;20231;-91
2022/04/12 04:10:39;;;;;;;13.38;6.47;;;4.50;99.90;;;;;;4877813;29;20203;-90
2022/04/12 04:13:08;;;;;;;13.15;7.07;;;4.50;99.90;;;;;;4878381;29;20075;-90
2022/04/12 04:15:40;;;;;;;14.80;6.90;;;4.50;99.90;;;;;;4894900;29;20045;-91
2022/04/12 04:18:07;;;;;;;12.48;6.28;;;4.50;99.90;;;;;;4889819;29;20136;-90
2022/04/12 04:20:32;;;;;;;12.98;6.50;;;4.70;99.90;;;;;;4888887;29;20083;-90
2022/04/12 04:22:58;;;;;;;12.93;6.93;;;4.80;99.90;;;;;;4874002;29;20066;-91
2022/04/12 04:25:24;;;;;;;14.13;7.25;;;4.50;99.90;;;;;;4864471;29;20116;-89
2022/04/12 04:27:50;;;;;;;13.57;7.00;;;4.50;99.90;;;;;;4861160;29;20107;-90
2022/04/12 04:30:17;;;;;;;13.50;6.57;;;5.40;99.90;;;;;;4875307;29;20106;-90
2022/04/12 04:32:43;;;;;;;16.48;7.47;;;4.50;99.90;;;;;;4864849;29;20029;-89
2022/04/12 04:35:09;;;;;;;14.43;7.05;;;4.50;99.90;;;;;;4877434;29;20043;-90
2022/04/12 04:37:50;;;;;;;16.15;7.55;;;5.30;99.90;;;;;;4882109;29;21128;-90
2022/04/12 04:40:18;;;;;;;13.50;7.13;;;4.50;99.90;;;;;;4875258;29;20068;-89
2022/04/12 04:42:45;;;;;;;13.52;7.22;;;5.50;99.90;;;;;;4891321;29;20121;-91
2022/04/12 04:45:15;;;;;;;14.38;7.50;;;4.50;99.90;;;;;;4893302;29;20040;-91
2022/04/12 04:48:07;;;;;;;14.75;7.13;;;4.50;99.90;;;;;;4877176;29;20047;-90
2022/04/12 04:50:34;;;;;;;13.55;7.15;;;4.50;99.90;;;;;;4877892;29;20501;-90
2022/04/12 04:53:02;;;;;;;14.88;7.47;;;4.70;99.90;;;;;;4878612;29;20100;-91
2022/04/12 04:55:28;;;;;;;14.73;7.70;;;4.40;99.90;;;;;;4918999;29;20120;-90
2022/04/12 04:57:55;;;;;;;14.68;7.20;;;4.40;99.90;;;;;;4891690;29;20484;-90
2022/04/12 05:00:22;;;;;;;12.85;7.43;;;4.50;99.90;;;;;;4888161;29;20055;-90
2022/04/12 05:02:52;;;;;;;14.20;7.10;;;4.40;99.90;;;;;;4877474;29;20045;-90
2022/04/12 05:05:19;;;;;;;13.63;7.70;;;6.00;99.90;;;;;;4877597;29;20482;-89
2022/04/12 05:07:46;;;;;;;13.63;7.20;;;5.50;99.90;;;;;;4895450;29;20081;-89
2022/04/12 05:10:17;;;;;;;15.05;7.47;;;4.50;99.90;;;;;;4881154;29;20507;-90
2022/04/12 05:12:43;;;;;;;14.20;7.97;;;4.50;99.90;;;;;;4894971;29;20043;-90
2022/04/12 05:15:09;;;;;;;15.85;7.90;;;5.20;99.90;;;;;;4893554;29;20041;-90
2022/04/12 05:17:34;;;;;;;14.07;7.55;;;4.50;99.90;;;;;;4877689;29;20599;-90
2022/04/12 05:20:00;;;;;;;14.27;7.45;;;5.60;99.90;;;;;;4877473;29;20036;-90
2022/04/12 05:22:26;;;;;;;13.10;7.07;;;4.50;99.90;;;;;;4894017;29;20115;-90
2022/04/12 05:24:53;;;;;;;16.05;7.60;;;4.50;99.90;;;;;;4878739;29;20047;-91
2022/04/12 05:27:19;;;;;;;16.63;7.93;;;4.60;99.90;;;;;;4895093;29;20040;-89
2022/04/12 05:29:45;;;;;;;12.13;7.15;;;4.60;99.90;;;;;;4863413;29;20100;-89
2022/04/12 05:32:13;;;;;;;13.77;7.63;;;4.60;99.90;;;;;;4881114;29;20048;-91
2022/04/12 05:34:46;;;;;;;13.68;7.30;;;4.90;99.90;;;;;;4892070;29;21492;-88
2022/04/12 05:37:11;;;;;;;15.48;8.00;;;4.80;99.90;;;;;;4867170;29;20036;-91
2022/04/12 05:39:37;;;;;;;13.65;6.97;;;4.80;99.90;;;;;;4877917;29;20433;-91
2022/04/12 05:42:03;;;;;;;14.35;7.57;;;5.10;99.90;;;;;;4896470;29;20090;-89
2022/04/12 05:44:33;;;;;;;13.05;7.35;;;5.00;99.90;;;;;;4892248;29;20040;-90
2022/04/12 05:47:00;;;;;;;15.80;8.02;;;5.10;99.90;;;;;;4883410;29;20036;-90
2022/04/12 05:49:26;;;;;;;13.70;7.70;;;5.30;99.90;;;;;;4881735;29;20382;-91
2022/04/12 05:51:52;;;;;;;15.15;7.43;;;5.40;99.90;;;;;;4865934;29;20064;-91
2022/04/12 05:54:17;;;;;;;13.80;7.15;;;6.00;99.90;;;;;;4912635;29;20075;-90
2022/04/12 05:56:43;;;;;;;15.35;8.30;;;6.60;99.90;;;;;;4883243;29;20135;-91
2022/04/12 05:59:09;;;;;;;14.73;7.18;;;6.00;99.90;;;;;;4912784;29;20048;-92
2022/04/12 06:01:35;;;;;;;13.60;7.45;;;6.20;99.90;;;;;;4896916;29;20045;-91
2022/04/12 06:04:00;;;;;;;13.48;7.70;;;6.30;99.90;;;;;;4875821;29;20218;-91
2022/04/12 06:06:27;;;;;;;14.30;7.40;;;6.50;99.90;;;;;;4896892;29;20044;-92
2022/04/12 06:08:53;;;;;;;13.75;7.40;;;6.50;99.90;;;;;;4866037;29;20196;-91
2022/04/12 06:11:19;;;;;;;12.90;7.00;;;7.20;99.90;;;;;;4896803;29;20043;-91
2022/04/12 06:13:45;;;;;;;12.52;7.00;;;6.60;99.90;;;;;;4880865;29;20044;-89
2022/04/12 06:16:11;;;;;;;14.27;7.80;;;6.60;99.90;;;;;;4880146;29;20040;-91
2022/04/12 06:18:36;;;;;;;12.57;6.75;;;6.60;99.90;;;;;;4886901;29;20048;-92
2022/04/12 06:21:02;;;;;;;14.27;7.18;;;7.80;99.90;;;;;;4885605;29;20100;-91
2022/04/12 06:23:28;;;;;;;14.45;7.18;;;6.60;99.90;;;;;;4882948;29;20053;-92
2022/04/12 06:25:54;;;;;;;13.88;7.65;;;6.70;99.90;;;;;;4883040;29;20128;-92
2022/04/12 06:28:20;;;;;;;14.00;7.25;;;7.20;99.90;;;;;;4896587;29;20037;-92
2022/04/12 06:30:48;;;;;;;15.15;7.72;;;6.80;99.90;;;;;;4897902;29;20051;-91
2022/04/12 06:33:14;;;;;;;14.00;7.15;;;6.80;99.90;;;;;;4882232;29;20052;-92
2022/04/12 06:35:40;;;;;;;13.98;7.78;;;7.10;99.90;;;;;;4898255;29;20079;-91
2022/04/12 06:38:06;;;;;;;14.10;8.02;;;7.00;99.90;;;;;;4866532;29;20072;-91
2022/04/12 06:40:34;;;;;;;14.07;7.55;;;7.10;99.90;;;;;;4897467;29;20489;-91
2022/04/12 06:42:59;;;;;;;14.85;7.30;;;7.20;99.90;;;;;;4881218;29;20045;-91
2022/04/12 06:45:25;;;;;;;15.73;8.00;;;7.60;99.90;;;;;;4881112;29;20048;-91
2022/04/12 06:47:53;;;;;;;14.98;7.85;;;7.40;99.90;;;;;;4897167;29;20075;-91
2022/04/12 06:50:19;;;;;;;14.27;7.70;;;7.80;99.90;;;;;;4897473;29;20037;-89
2022/04/12 06:52:45;;;;;;;14.73;8.23;;;7.60;99.90;;;;;;4878501;29;20082;-91
2022/04/12 06:55:10;;;;;;;15.90;8.27;;;8.80;99.90;;;;;;4894317;29;20048;-91
2022/04/12 06:57:37;;;;;;;15.52;7.72;;;7.70;99.90;;;;;;4892553;29;20067;-92
2022/04/12 07:00:07;;;;;;;13.05;7.07;;;8.00;99.90;;;;;;4911502;29;20049;-91
2022/04/12 07:02:33;;;;;;;13.32;7.30;;;7.80;99.90;;;;;;4897059;29;20051;-91
2022/04/12 07:05:00;;;;;;;14.73;7.75;;;7.80;99.90;;;;;;4897087;29;20123;-91
2022/04/12 07:07:26;;;;;;;16.55;8.45;;;7.90;99.90;;;;;;4881229;29;20120;-92
2022/04/12 07:09:52;;;;;;;14.10;7.68;;;8.20;99.90;;;;;;4896671;29;20041;-91
2022/04/12 07:12:17;;;;;;;13.23;7.25;;;8.20;99.90;;;;;;4865613;29;20051;-92
2022/04/12 07:14:43;;;;;;;13.60;7.32;;;8.00;99.90;;;;;;4866376;29;20045;-91
2022/04/12 07:17:09;;;;;;;15.32;8.50;;;8.00;99.90;;;;;;4878781;29;20051;-92
2022/04/12 07:19:35;;;;;;;14.02;7.97;;;8.10;99.90;;;;;;4878284;29;20124;-91
2022/04/12 07:22:00;;;;;;;14.30;7.60;;;8.10;99.90;;;;;;4894294;29;20048;-93
2022/04/12 07:24:26;;;;;;;13.13;7.72;;;8.10;99.90;;;;;;4896614;29;20430;-90
2022/04/12 07:26:52;;;;;;;13.43;7.72;;;8.20;99.90;;;;;;4862817;29;20120;-92
2022/04/12 07:29:18;;;;;;;14.60;7.93;;;8.20;99.90;;;;;;4893352;29;20534;-91
2022/04/12 07:31:43;;;;;;;15.48;8.00;;;8.30;99.90;;;;;;4864850;29;20045;-91
2022/04/12 07:34:10;;;;;;;14.02;7.88;;;8.50;99.90;;;;;;4878070;29;20080;-89
2022/04/12 07:36:39;;;;;;;14.95;8.20;;;8.60;99.90;;;;;;4896170;29;20497;-90
2022/04/12 07:39:06;;;;;;;13.77;7.45;;;8.70;99.90;;;;;;4897059;29;20045;-92
2022/04/12 07:41:32;;;;;;;15.02;8.00;;;9.10;99.90;;;;;;4878084;29;20052;-92
2022/04/12 07:43:58;;;;;;;14.68;7.57;;;9.00;99.90;;;;;;4893714;29;20045;-91
2022/04/12 07:46:23;;;;;;;14.30;7.65;;;9.10;99.90;;;;;;4880919;29;20119;-92
2022/04/12 07:48:49;;;;;;;14.27;7.28;;;9.30;99.90;;;;;;4897218;29;20103;-93
2022/04/12 07:51:15;;;;;;;15.73;8.27;;;9.40;99.90;;;;;;4884033;29;20147;-91
2022/04/12 07:53:41;;;;;;;14.00;7.75;;;9.50;99.90;;;;;;4896363;29;20123;-92
2022/04/12 07:56:07;;;;;;;12.63;7.43;;;9.70;99.90;;;;;;4896803;29;20064;-92
2022/04/12 07:58:33;;;;;;;14.43;7.65;;;9.90;99.90;;;;;;4896557;29;20401;-91
2022/04/12 08:00:59;;;;;;;15.13;7.68;;;10.00;99.90;;;;;;4894468;29;20045;-91
2022/04/12 08:03:25;;;;;;;14.20;7.63;;;10.20;99.90;;;;;;4881542;29;20131;-91
2022/04/12 08:05:51;;;;;;;12.90;7.50;;;10.30;99.90;;;;;;4869363;29;20082;-91
2022/04/12 08:08:18;;;;;;;14.77;7.75;;;10.40;99.90;;;;;;4880736;29;20044;-92
2022/04/12 08:10:43;;;;;;;13.75;7.65;;;10.50;99.90;;;;;;4896135;29;20489;-92
2022/04/12 08:13:10;;;;;;;14.07;7.53;;;10.70;99.90;;;;;;4880740;29;20033;-94
2022/04/12 08:15:38;;;;;;;12.63;7.00;;;10.80;99.90;;;;;;4880343;29;20091;-91
2022/04/12 08:18:05;;;;;;;15.63;7.32;;;10.90;99.90;;;;;;4895993;29;20131;-92
2022/04/12 08:20:31;;;;;;;14.35;7.47;;;11.00;99.90;;;;;;4892537;29;20041;-91
2022/04/12 08:22:57;;;;;;;16.08;7.03;;;11.00;99.90;;;;;;4892726;29;20041;-93
2022/04/12 08:25:23;;;;;;;12.43;7.15;;;11.00;99.90;;;;;;4910834;29;20200;-94
2022/04/12 08:27:49;;;;;;;12.25;7.05;;;11.10;99.90;;;;;;4895998;29;20052;-93
2022/04/12 08:30:14;;;;;;;11.70;6.80;;;11.20;99.90;;;;;;4895958;29;20119;-92
2022/04/12 08:32:40;;;;;;;14.13;7.32;;;11.30;99.90;;;;;;4864585;29;20131;-93
2022/04/12 08:35:07;;;;;;;14.65;7.72;;;11.40;99.90;;;;;;4894880;29;20059;-93
2022/04/12 08:37:33;;;;;;;14.60;7.70;;;11.50;99.90;;;;;;4911544;29;20052;-91
2022/04/12 08:39:59;;;;;;;14.82;6.65;;;11.70;99.90;;;;;;4911312;29;20044;-92
2022/04/12 08:42:25;;;;;;;14.65;7.63;;;11.90;99.90;;;;;;4895428;29;20095;-91
2022/04/12 08:44:50;;;;;;;12.50;6.85;;;12.00;99.90;;;;;;4895310;29;20037;-91
2022/04/12 08:47:22;;;;;;;12.45;6.97;;;12.10;99.90;;;;;;4896147;29;20040;-90
2022/04/12 08:49:48;;;;;;;13.05;6.78;;;12.20;99.90;;;;;;4880002;29;20112;-90
2022/04/12 08:52:14;;;;;;;12.82;6.70;;;12.30;99.90;;;;;;4895351;29;20044;-91
2022/04/12 08:54:45;;;;;;;12.98;7.32;;;12.40;99.90;;;;;;4895636;29;20067;-90
2022/04/12 08:57:12;;;;;;;14.30;7.35;;;12.50;99.90;;;;;;4895030;29;20053;-91
2022/04/12 08:59:38;;;;;;;13.52;7.30;;;12.60;99.90;;;;;;4864109;29;20076;-91
2022/04/12 09:02:08;;;;;;;14.40;7.18;;;12.60;99.90;;;;;;4880034;29;20041;-92
2022/04/12 09:04:34;;;;;;;14.38;7.20;;;12.70;99.90;;;;;;4895792;29;20044;-90
2022/04/12 09:07:01;;;;;;;12.02;7.22;;;12.80;99.90;;;;;;4894872;29;20060;-92
2022/04/12 09:09:29;;;;;;;13.40;7.63;;;12.90;99.90;;;;;;4879989;29;20049;-93
2022/04/12 09:11:59;;;;;;;12.90;6.82;;;13.00;99.90;;;;;;4895337;29;20041;-91
2022/04/12 09:14:35;;;;;;;13.73;7.85;;;13.10;99.90;;;;;;4876569;29;20402;-91
2022/04/12 09:17:03;;;;;;;13.63;7.30;;;13.20;99.90;;;;;;4891946;29;20520;-90
2022/04/12 09:19:55;;;;;;;12.30;7.20;;;13.00;99.90;;;;;;4881463;29;20048;-90
2022/04/12 09:22:26;;;;;;;14.05;7.43;;;13.30;99.90;;;;;;4883714;29;20379;-92
2022/04/12 09:24:53;;;;;;;13.52;7.38;;;13.40;99.90;;;;;;4898788;29;20417;-90
2022/04/12 09:27:25;;;;;;;14.05;7.93;;;13.50;99.90;;;;;;4898885;29;20135;-91
2022/04/12 09:29:58;;;;;;;13.45;6.90;;;13.60;99.90;;;;;;4887556;29;20119;-91
2022/04/12 09:32:26;;;;;;;14.10;8.00;;;13.60;99.90;;;;;;4898194;29;20077;-93
2022/04/12 09:34:53;;;;;;;13.27;7.35;;;13.70;99.90;;;;;;4896082;29;20076;-91
2022/04/12 09:37:30;;;;;;;15.90;8.30;;;13.70;99.90;;;;;;4912829;29;20049;-91
2022/04/12 09:39:58;;;;;;;12.57;7.43;;;13.80;99.90;;;;;;4899328;29;20049;-91
2022/04/12 09:42:44;;;;;;;14.18;7.72;;;13.90;99.90;;;;;;4864598;29;20060;-92
2022/04/12 09:45:19;;;;;;;13.63;8.02;;;14.00;99.90;;;;;;4880181;29;20120;-92
2022/04/12 09:47:46;;;;;;;13.45;8.13;;;14.10;99.90;;;;;;4880546;29;20049;-92
2022/04/12 09:50:12;;;;;;;14.77;7.90;;;14.20;99.90;;;;;;4892901;29;20033;-91
2022/04/12 09:52:38;;;;;;;13.25;7.43;;;14.30;99.90;;;;;;4895204;29;20047;-90
2022/04/12 09:55:09;;;;;;;13.82;7.78;;;14.40;99.90;;;;;;4864429;29;20446;-91
2022/04/12 09:57:38;;;;;;;13.55;7.57;;;14.50;99.90;;;;;;4880172;29;20088;-91
2022/04/12 10:00:04;;;;;;;12.80;7.63;;;14.60;99.90;;;;;;4882083;29;20058;-91
2022/04/12 10:02:33;;;;;;;13.18;7.65;;;14.70;99.90;;;;;;4882722;29;20076;-93
2022/04/12 10:05:03;;;;;;;13.48;7.82;;;14.90;99.90;;;;;;4888518;29;20048;-92
2022/04/12 10:07:32;;;;;;;12.98;7.20;;;14.90;99.90;;;;;;4876889;29;20043;-91
2022/04/12 10:09:58;;;;;;;13.38;6.82;;;15.00;99.90;;;;;;4899393;29;20515;-90
2022/04/12 10:12:25;;;;;;;12.55;7.18;;;15.10;99.90;;;;;;4896802;29;20079;-91
2022/04/12 10:14:51;;;;;;;12.57;7.45;;;15.20;99.90;;;;;;4880769;29;20032;-91
2022/04/12 10:17:18;;;;;;;12.93;7.20;;;15.20;99.90;;;;;;4880427;29;20093;-91
2022/04/12 10:19:44;;;;;;;15.82;7.45;;;15.30;99.90;;;;;;4889721;29;20048;-89
2022/04/12 10:22:10;;;;;;;12.27;7.22;;;15.40;99.90;;;;;;4880997;29;20143;-90
2022/04/12 10:24:37;;;;;;;13.90;7.75;;;15.50;99.90;;;;;;4894618;29;20081;-90
2022/04/12 10:27:05;;;;;;;12.23;7.03;;;15.60;99.90;;;;;;4896970;29;20120;-91
2022/04/12 10:29:31;;;;;;;14.07;7.20;;;15.70;99.90;;;;;;4897094;29;20040;-90
2022/04/12 10:31:58;;;;;;;15.68;7.95;;;15.70;99.90;;;;;;4881133;29;20041;-91
2022/04/12 10:34:24;;;;;;;14.20;7.72;;;15.90;99.90;;;;;;4913506;29;20044;-92
2022/04/12 10:37:02;;;;;;;12.52;7.15;;;16.10;99.90;;;;;;4863965;29;20107;-92
2022/04/12 10:39:32;;;;;;;13.18;7.22;;;16.20;99.90;;;;;;4897223;29;20429;-91
2022/04/12 10:42:05;;;;;;;12.75;6.90;;;16.30;99.90;;;;;;4881116;29;20123;-92
2022/04/12 10:44:53;;;;;;;12.93;7.55;;;16.30;99.90;;;;;;4909903;29;20048;-91
2022/04/12 10:47:36;;;;;;;13.45;7.00;;;16.40;99.90;;;;;;4893482;29;20096;-92
2022/04/12 10:50:08;;;;;;;13.82;7.50;;;16.50;99.90;;;;;;4881508;29;20044;-92
2022/04/12 10:52:35;;;;;;;12.57;7.90;;;16.50;99.90;;;;;;4897055;29;20529;-91
2022/04/12 10:55:04;;;;;;;14.10;7.90;;;16.60;99.90;;;;;;4895368;29;20045;-92
2022/04/12 10:57:29;;;;;;;13.43;7.28;;;16.70;99.90;;;;;;4911870;29;20147;-89
2022/04/12 11:00:17;;;;;;;15.07;7.38;;;16.70;99.90;;;;;;4896842;29;20124;-91
2022/04/12 11:02:59;;;;;;;14.80;7.43;;;16.90;99.90;;;;;;4892301;29;20057;-91
2022/04/12 11:05:37;;;;;;;13.63;7.15;;;16.90;99.90;;;;;;4871043;29;20420;-92
2022/04/12 11:08:15;;;;;;;13.63;7.43;;;17.00;99.90;;;;;;4896320;29;20123;-90
2022/04/12 11:10:54;;;;;;;12.52;6.88;;;17.10;99.90;;;;;;4894763;29;20055;-90
2022/04/12 11:13:22;;;;;;;12.20;6.97;;;17.20;99.90;;;;;;4880902;29;20418;-91
2022/04/12 11:15:59;;;;;;;13.25;7.40;;;17.30;99.90;;;;;;4897439;29;20077;-91
2022/04/12 11:18:58;;;;;;;14.05;7.10;;;17.40;99.90;;;;;;4897667;29;20096;-92
2022/04/12 11:21:45;;;;;;;14.40;7.38;;;17.50;99.90;;;;;;4880824;29;20588;-89
2022/04/12 11:24:14;;;;;;;14.55;6.68;;;17.40;99.90;;;;;;4896926;29;20057;-90
2022/04/12 11:26:50;;;;;;;16.10;8.02;;;17.50;99.90;;;;;;4880512;29;20110;-89
2022/04/12 11:29:26;;;;;;;12.45;7.40;;;17.70;99.90;;;;;;4880772;29;20095;-92
2022/04/12 11:31:56;;;;;;;12.98;7.15;;;17.80;99.90;;;;;;4879584;29;20037;-90
2022/04/12 11:34:23;;;;;;;15.95;7.35;;;17.80;99.90;;;;;;4911697;29;20055;-91
2022/04/12 11:37:01;;;;;;;14.00;7.97;;;17.90;99.90;;;;;;4880326;29;20050;-90
2022/04/12 11:39:29;;;;;;;12.52;7.40;;;17.90;99.90;;;;;;4911848;29;20040;-91
2022/04/12 11:41:59;;;;;;;12.98;7.93;;;17.90;99.90;;;;;;4879682;29;20044;-91
2022/04/12 11:44:25;;;;;;;13.75;7.68;;;17.90;99.90;;;;;;4882722;29;20056;-90
2022/04/12 11:47:02;;;;;;;13.25;7.55;;;17.90;99.90;;;;;;4894896;29;20040;-90
2022/04/12 11:49:32;;;;;;;14.15;7.47;;;18.10;99.90;;;;;;4879271;29;20044;-90
2022/04/12 11:52:00;;;;;;;18.85;7.70;;;18.20;99.90;;;;;;4878904;29;20040;-89
2022/04/12 11:54:34;;;;;;;13.75;7.85;;;18.40;99.90;;;;;;4864500;29;20044;-92
2022/04/12 11:57:09;;;;;;;14.20;7.80;;;18.60;99.90;;;;;;4910988;29;20498;-90
2022/04/12 11:59:36;;;;;;;13.95;7.90;;;18.50;99.90;;;;;;4888943;29;20565;-91
2022/04/12 12:02:04;;;;;;;12.75;6.97;;;18.60;99.90;;;;;;4881168;29;20406;-92
2022/04/12 12:04:32;;;;;;;13.10;7.07;;;18.60;99.90;;;;;;4892555;29;20514;-91
2022/04/12 12:07:03;;;;;;;12.65;7.00;;;18.70;99.90;;;;;;4881665;29;20039;-92
2022/04/12 12:09:30;;;;;;;12.70;7.00;;;18.80;99.90;;;;;;4880112;29;20072;-91
2022/04/12 12:12:06;;;;;;;13.15;7.40;;;18.80;99.90;;;;;;4896586;29;20120;-92
2022/04/12 12:14:33;;;;;;;15.68;7.63;;;18.80;99.90;;;;;;4881557;29;20043;-93
2022/04/12 12:17:01;;;;;;;13.20;6.88;;;18.70;99.90;;;;;;4880844;29;20050;-92
2022/04/12 12:19:27;;;;;;;12.60;6.78;;;18.70;99.90;;;;;;4880094;29;20089;-92
2022/04/12 12:21:53;;;;;;;13.07;6.60;;;18.70;99.90;;;;;;4896019;29;20040;-92
2022/04/12 12:24:19;;;;;;;12.88;6.63;;;18.70;99.90;;;;;;4879356;29;20044;-93
2022/04/12 12:26:44;;;;;;;14.45;7.53;;;18.70;99.90;;;;;;4876689;29;20041;-91
2022/04/12 12:29:12;;;;;;;12.73;7.13;;;18.70;99.90;;;;;;4881954;29;20044;-91
2022/04/12 12:31:43;;;;;;;15.07;7.47;;;18.80;99.90;;;;;;4895113;29;20041;-91
2022/04/12 12:34:24;;;;;;;15.75;7.70;;;18.80;99.90;;;;;;4879382;29;20103;-92
2022/04/12 12:36:50;;;;;;;15.27;7.72;;;18.80;99.90;;;;;;4876206;29;20052;-93
2022/04/12 12:39:18;;;;;;;17.05;7.70;;;18.80;99.90;;;;;;4877836;29;20041;-91
2022/04/12 12:41:44;;;;;;;16.30;7.60;;;18.90;99.90;;;;;;4878726;29;20048;-91
2022/04/12 12:44:09;;;;;;;12.68;7.10;;;19.00;99.90;;;;;;4895021;29;20145;-90
2022/04/12 12:46:37;;;;;;;12.52;7.53;;;19.00;99.90;;;;;;4878728;29;20043;-92
2022/04/12 12:49:09;;;;;;;13.18;6.70;;;19.10;99.90;;;;;;4864352;29;20040;-91